Maquine, Brazil
Current Conditions -  °F | °C
As of 10:00 PM on Friday 21 Nov 2014 (Local Time) from SBCO Reporting Station
Thunderstorm Thunderstorm  
Wind Chill: 73°   Ceiling: 5000
Heat Index: 73°   Visibility: 5mi
Dew Point: 72°   Wind: 6mph
Humidity: 94%   Direction: 160°SSE
Pressure: NA   Gusts: NA
Location:  29.68°S, 50.21°W
Report Text: SBCO 220000Z 16005KT 8000 -TSRA FEW040CB BKN050 BKN100 23/22 Q1009
Loading
Personal Weather Stations






























Interactive Weather Map New forecast layout! Learn more

10-Day Weather Forecast

Advertisements
Track Severe Weather on mobile